Página principal
METAR-TAF:

METAR-TAF

Aeroportos :

Ngaoundéré, Camarões

latitude: 07-21N, longitude: 013-34E, altura: 1114 m

Observação actual do tempo

O boletim foi feito há 1 hora e 4 minutos, às 16:00 UTC
Vento 3 kt de es-nordeste
Temperatura 27°C
Humidade 62%
Pressão 1016 hPa
Visibilidade 10 km ou mais
Poucas nuvensa uma altura de 1200 ft
Poucas nuvensa uma altura de 1300 ft, Cumulonimbus.

METAR: FKKN 221600Z 06003KT 9999 FEW012 FEW013CB 27/19 Q1016

Hora: 18:04 (17:04 UTC)


TAF: em falta

Observações e previsões do tempo de mais de 4000 aeroportos (mensagens METAR e TAF).

As estações disponíveis são os pontos amarelos e vermelhos sobre o mapa.

Mova o rato sobre o mapa para ver o nome da estação.

Depois clique no ponto para visualizar as observações e previsões meteorológicas.

Para alterar o mapa : clique nos botões verdes com uma cruz preta para aumentar o zoom; no botão verde com uma pitada de zoom; ou nas setas verdes para mapas adjacentes.


METAR-TAF: